sensor_id;sensor_type;location;lat;lon;timestamp;P1;durP1;ratioP1;P2;durP2;ratioP2
57319;SDS011;43158;51.026;18.190;2022-12-07T00:02:22;66.90;;;44.20;;
57319;SDS011;43158;51.026;18.190;2022-12-07T00:06:00;64.20;;;43.50;;
57319;SDS011;43158;51.026;18.190;2022-12-07T00:09:38;58.70;;;41.30;;
57319;SDS011;43158;51.026;18.190;2022-12-07T00:13:15;58.80;;;42.00;;
57319;SDS011;43158;51.026;18.190;2022-12-07T00:16:53;63.80;;;39.40;;
57319;SDS011;43158;51.026;18.190;2022-12-07T00:20:31;55.20;;;38.40;;
57319;SDS011;43158;51.026;18.190;2022-12-07T00:24:09;56.60;;;38.40;;
57319;SDS011;43158;51.026;18.190;2022-12-07T00:27:46;57.60;;;39.60;;
57319;SDS011;43158;51.026;18.190;2022-12-07T00:31:25;55.60;;;38.10;;
57319;SDS011;43158;51.026;18.190;2022-12-07T00:35:01;56.80;;;39.70;;
57319;SDS011;43158;51.026;18.190;2022-12-07T00:38:39;55.20;;;39.20;;
57319;SDS011;43158;51.026;18.190;2022-12-07T00:42:17;56.80;;;39.80;;
57319;SDS011;43158;51.026;18.190;2022-12-07T00:45:54;52.40;;;37.10;;
57319;SDS011;43158;51.026;18.190;2022-12-07T00:49:32;55.90;;;39.30;;
57319;SDS011;43158;51.026;18.190;2022-12-07T00:53:10;52.70;;;39.50;;
57319;SDS011;43158;51.026;18.190;2022-12-07T00:56:47;65.50;;;42.70;;
57319;SDS011;43158;51.026;18.190;2022-12-07T01:00:25;61.00;;;40.20;;
57319;SDS011;43158;51.026;18.190;2022-12-07T01:04:03;64.10;;;40.20;;
57319;SDS011;43158;51.026;18.190;2022-12-07T01:07:40;61.60;;;40.00;;
57319;SDS011;43158;51.026;18.190;2022-12-07T01:11:19;62.00;;;43.60;;
57319;SDS011;43158;51.026;18.190;2022-12-07T01:15:00;61.50;;;42.70;;
57319;SDS011;43158;51.026;18.190;2022-12-07T01:18:38;60.50;;;40.50;;
57319;SDS011;43158;51.026;18.190;2022-12-07T01:22:15;62.20;;;46.00;;
57319;SDS011;43158;51.026;18.190;2022-12-07T01:25:54;65.80;;;47.60;;
57319;SDS011;43158;51.026;18.190;2022-12-07T01:29:31;72.40;;;48.20;;
57319;SDS011;43158;51.026;18.190;2022-12-07T01:33:09;70.40;;;47.90;;
57319;SDS011;43158;51.026;18.190;2022-12-07T01:36:46;72.50;;;47.60;;
57319;SDS011;43158;51.026;18.190;2022-12-07T01:40:24;69.50;;;49.20;;
57319;SDS011;43158;51.026;18.190;2022-12-07T01:47:49;69.10;;;46.40;;
57319;SDS011;43158;51.026;18.190;2022-12-07T01:51:29;68.70;;;46.10;;
57319;SDS011;43158;51.026;18.190;2022-12-07T01:55:09;66.60;;;45.50;;
57319;SDS011;43158;51.026;18.190;2022-12-07T01:58:48;80.30;;;50.50;;
57319;SDS011;43158;51.026;18.190;2022-12-07T02:02:27;78.30;;;50.60;;
57319;SDS011;43158;51.026;18.190;2022-12-07T02:06:07;69.80;;;46.50;;
57319;SDS011;43158;51.026;18.190;2022-12-07T02:09:42;73.50;;;48.70;;
57319;SDS011;43158;51.026;18.190;2022-12-07T02:13:24;79.10;;;53.90;;
57319;SDS011;43158;51.026;18.190;2022-12-07T02:21:02;78.00;;;48.80;;
57319;SDS011;43158;51.026;18.190;2022-12-07T02:33:06;87.00;;;53.40;;
57319;SDS011;43158;51.026;18.190;2022-12-07T02:36:43;76.80;;;48.70;;
57319;SDS011;43158;51.026;18.190;2022-12-07T02:40:40;75.10;;;47.10;;
57319;SDS011;43158;51.026;18.190;2022-12-07T02:44:20;78.70;;;48.20;;
57319;SDS011;43158;51.026;18.190;2022-12-07T02:47:57;74.70;;;46.80;;
57319;SDS011;43158;51.026;18.190;2022-12-07T02:51:38;66.80;;;45.30;;
57319;SDS011;43158;51.026;18.190;2022-12-07T02:55:16;62.40;;;44.40;;
57319;SDS011;43158;51.026;18.190;2022-12-07T03:10:12;66.20;;;41.30;;
57319;SDS011;43158;51.026;18.190;2022-12-07T03:14:15;63.70;;;42.40;;
57319;SDS011;43158;51.026;18.190;2022-12-07T03:17:51;66.20;;;38.10;;
57319;SDS011;43158;51.026;18.190;2022-12-07T03:21:33;58.30;;;38.50;;
57319;SDS011;43158;51.026;18.190;2022-12-07T03:25:13;58.80;;;36.80;;
57319;SDS011;43158;51.026;18.190;2022-12-07T03:28:51;57.20;;;38.60;;
57319;SDS011;43158;51.026;18.190;2022-12-07T03:32:30;54.30;;;38.50;;
57319;SDS011;43158;51.026;18.190;2022-12-07T03:36:15;56.70;;;37.70;;
57319;SDS011;43158;51.026;18.190;2022-12-07T03:43:56;50.60;;;36.10;;
57319;SDS011;43158;51.026;18.190;2022-12-07T03:48:02;50.00;;;36.20;;
57319;SDS011;43158;51.026;18.190;2022-12-07T03:51:15;51.80;;;35.90;;
57319;SDS011;43158;51.026;18.190;2022-12-07T03:58:38;47.80;;;33.60;;
57319;SDS011;43158;51.026;18.190;2022-12-07T04:02:15;50.70;;;33.60;;
57319;SDS011;43158;51.026;18.190;2022-12-07T04:05:53;49.80;;;32.40;;
57319;SDS011;43158;51.026;18.190;2022-12-07T04:09:31;48.20;;;34.10;;
57319;SDS011;43158;51.026;18.190;2022-12-07T04:13:08;40.30;;;29.50;;
57319;SDS011;43158;51.026;18.190;2022-12-07T04:20:26;36.50;;;26.90;;
57319;SDS011;43158;51.026;18.190;2022-12-07T04:24:03;36.10;;;26.00;;
57319;SDS011;43158;51.026;18.190;2022-12-07T04:27:40;31.50;;;23.50;;
57319;SDS011;43158;51.026;18.190;2022-12-07T04:31:17;34.40;;;24.60;;
57319;SDS011;43158;51.026;18.190;2022-12-07T04:34:55;29.50;;;23.70;;
57319;SDS011;43158;51.026;18.190;2022-12-07T04:38:33;32.00;;;21.60;;
57319;SDS011;43158;51.026;18.190;2022-12-07T04:42:11;30.50;;;22.00;;
57319;SDS011;43158;51.026;18.190;2022-12-07T04:45:48;26.00;;;21.80;;
57319;SDS011;43158;51.026;18.190;2022-12-07T04:49:26;35.10;;;21.40;;
57319;SDS011;43158;51.026;18.190;2022-12-07T04:53:03;25.10;;;21.50;;
57319;SDS011;43158;51.026;18.190;2022-12-07T04:56:41;27.20;;;20.80;;
57319;SDS011;43158;51.026;18.190;2022-12-07T05:00:19;24.30;;;20.60;;
57319;SDS011;43158;51.026;18.190;2022-12-07T05:03:56;23.70;;;20.10;;
57319;SDS011;43158;51.026;18.190;2022-12-07T05:07:34;22.80;;;19.00;;
57319;SDS011;43158;51.026;18.190;2022-12-07T05:11:12;23.40;;;19.10;;
57319;SDS011;43158;51.026;18.190;2022-12-07T05:15:07;23.40;;;20.90;;
57319;SDS011;43158;51.026;18.190;2022-12-07T05:18:43;24.20;;;19.60;;
57319;SDS011;43158;51.026;18.190;2022-12-07T05:22:21;21.50;;;18.50;;
57319;SDS011;43158;51.026;18.190;2022-12-07T05:25:58;24.40;;;21.10;;
57319;SDS011;43158;51.026;18.190;2022-12-07T05:29:36;24.60;;;19.20;;
57319;SDS011;43158;51.026;18.190;2022-12-07T05:33:14;24.30;;;20.60;;
57319;SDS011;43158;51.026;18.190;2022-12-07T05:36:51;28.40;;;21.60;;
57319;SDS011;43158;51.026;18.190;2022-12-07T05:40:29;26.80;;;22.20;;
57319;SDS011;43158;51.026;18.190;2022-12-07T05:44:07;27.40;;;23.70;;
57319;SDS011;43158;51.026;18.190;2022-12-07T05:47:44;30.60;;;24.80;;
57319;SDS011;43158;51.026;18.190;2022-12-07T05:51:22;29.70;;;26.50;;
57319;SDS011;43158;51.026;18.190;2022-12-07T05:55:00;39.60;;;29.40;;
57319;SDS011;43158;51.026;18.190;2022-12-07T05:58:38;36.00;;;28.50;;
57319;SDS011;43158;51.026;18.190;2022-12-07T06:02:31;35.10;;;28.40;;
57319;SDS011;43158;51.026;18.190;2022-12-07T06:06:09;45.60;;;40.10;;
57319;SDS011;43158;51.026;18.190;2022-12-07T06:09:47;43.70;;;35.70;;
57319;SDS011;43158;51.026;18.190;2022-12-07T06:13:28;44.30;;;37.10;;
57319;SDS011;43158;51.026;18.190;2022-12-07T06:17:03;56.90;;;46.00;;
57319;SDS011;43158;51.026;18.190;2022-12-07T06:20:41;50.10;;;42.30;;
57319;SDS011;43158;51.026;18.190;2022-12-07T06:24:20;76.10;;;64.10;;
57319;SDS011;43158;51.026;18.190;2022-12-07T06:27:58;63.80;;;55.70;;
57319;SDS011;43158;51.026;18.190;2022-12-07T06:31:36;53.20;;;41.10;;
57319;SDS011;43158;51.026;18.190;2022-12-07T06:35:13;59.10;;;41.10;;
57319;SDS011;43158;51.026;18.190;2022-12-07T06:38:51;65.50;;;38.10;;
57319;SDS011;43158;51.026;18.190;2022-12-07T06:42:29;56.10;;;37.60;;
57319;SDS011;43158;51.026;18.190;2022-12-07T06:46:06;75.80;;;63.60;;
57319;SDS011;43158;51.026;18.190;2022-12-07T06:49:44;56.10;;;45.00;;
57319;SDS011;43158;51.026;18.190;2022-12-07T06:53:22;74.60;;;58.60;;
57319;SDS011;43158;51.026;18.190;2022-12-07T06:56:59;60.90;;;42.30;;
57319;SDS011;43158;51.026;18.190;2022-12-07T07:00:37;57.00;;;45.80;;
57319;SDS011;43158;51.026;18.190;2022-12-07T07:04:14;127.20;;;101.30;;
57319;SDS011;43158;51.026;18.190;2022-12-07T07:07:52;326.40;;;255.50;;
57319;SDS011;43158;51.026;18.190;2022-12-07T07:11:30;372.80;;;268.00;;
57319;SDS011;43158;51.026;18.190;2022-12-07T07:15:08;202.90;;;127.60;;
57319;SDS011;43158;51.026;18.190;2022-12-07T07:18:45;222.60;;;111.40;;
57319;SDS011;43158;51.026;18.190;2022-12-07T07:22:23;60.20;;;38.50;;
57319;SDS011;43158;51.026;18.190;2022-12-07T07:26:00;43.70;;;30.30;;
57319;SDS011;43158;51.026;18.190;2022-12-07T07:29:38;39.60;;;26.00;;
57319;SDS011;43158;51.026;18.190;2022-12-07T07:33:16;44.90;;;28.70;;
57319;SDS011;43158;51.026;18.190;2022-12-07T07:36:53;160.30;;;111.70;;
57319;SDS011;43158;51.026;18.190;2022-12-07T07:40:31;160.70;;;69.20;;
57319;SDS011;43158;51.026;18.190;2022-12-07T07:44:09;108.40;;;54.10;;
57319;SDS011;43158;51.026;18.190;2022-12-07T07:47:47;110.80;;;49.70;;
57319;SDS011;43158;51.026;18.190;2022-12-07T07:51:24;99.30;;;57.10;;
57319;SDS011;43158;51.026;18.190;2022-12-07T07:55:02;128.20;;;64.10;;
57319;SDS011;43158;51.026;18.190;2022-12-07T07:58:39;514.70;;;383.00;;
57319;SDS011;43158;51.026;18.190;2022-12-07T08:02:18;145.50;;;58.70;;
57319;SDS011;43158;51.026;18.190;2022-12-07T08:05:55;117.50;;;57.90;;
57319;SDS011;43158;51.026;18.190;2022-12-07T08:09:32;124.00;;;56.20;;
57319;SDS011;43158;51.026;18.190;2022-12-07T08:13:10;140.30;;;61.60;;
57319;SDS011;43158;51.026;18.190;2022-12-07T08:16:48;119.90;;;55.40;;
57319;SDS011;43158;51.026;18.190;2022-12-07T08:20:26;128.20;;;55.30;;
57319;SDS011;43158;51.026;18.190;2022-12-07T08:24:03;227.90;;;171.80;;
57319;SDS011;43158;51.026;18.190;2022-12-07T08:27:41;135.80;;;60.50;;
57319;SDS011;43158;51.026;18.190;2022-12-07T08:31:18;130.50;;;59.20;;
57319;SDS011;43158;51.026;18.190;2022-12-07T08:34:56;120.20;;;55.50;;
57319;SDS011;43158;51.026;18.190;2022-12-07T08:38:34;116.30;;;53.70;;
57319;SDS011;43158;51.026;18.190;2022-12-07T08:42:11;128.40;;;54.00;;
57319;SDS011;43158;51.026;18.190;2022-12-07T08:49:46;113.90;;;49.50;;
57319;SDS011;43158;51.026;18.190;2022-12-07T08:53:23;149.80;;;64.40;;
57319;SDS011;43158;51.026;18.190;2022-12-07T08:57:01;118.50;;;50.40;;
57319;SDS011;43158;51.026;18.190;2022-12-07T09:00:39;121.60;;;49.60;;
57319;SDS011;43158;51.026;18.190;2022-12-07T09:04:16;121.20;;;50.00;;
57319;SDS011;43158;51.026;18.190;2022-12-07T09:07:55;135.60;;;57.80;;
57319;SDS011;43158;51.026;18.190;2022-12-07T09:11:31;144.70;;;60.80;;
57319;SDS011;43158;51.026;18.190;2022-12-07T09:15:09;125.40;;;53.00;;
57319;SDS011;43158;51.026;18.190;2022-12-07T09:18:47;150.30;;;57.90;;
57319;SDS011;43158;51.026;18.190;2022-12-07T09:22:27;134.70;;;55.70;;
57319;SDS011;43158;51.026;18.190;2022-12-07T09:26:06;144.90;;;55.40;;
57319;SDS011;43158;51.026;18.190;2022-12-07T09:29:42;137.50;;;61.00;;
57319;SDS011;43158;51.026;18.190;2022-12-07T09:33:19;124.90;;;55.70;;
57319;SDS011;43158;51.026;18.190;2022-12-07T09:36:57;194.80;;;112.70;;
57319;SDS011;43158;51.026;18.190;2022-12-07T09:40:35;135.50;;;59.40;;
57319;SDS011;43158;51.026;18.190;2022-12-07T09:44:13;125.20;;;56.20;;
57319;SDS011;43158;51.026;18.190;2022-12-07T09:47:51;123.40;;;49.70;;
57319;SDS011;43158;51.026;18.190;2022-12-07T09:51:29;123.30;;;50.30;;
57319;SDS011;43158;51.026;18.190;2022-12-07T09:55:14;130.80;;;57.50;;
57319;SDS011;43158;51.026;18.190;2022-12-07T09:59:12;282.90;;;203.80;;
57319;SDS011;43158;51.026;18.190;2022-12-07T10:02:52;131.30;;;55.20;;
57319;SDS011;43158;51.026;18.190;2022-12-07T10:06:31;124.20;;;54.30;;
57319;SDS011;43158;51.026;18.190;2022-12-07T10:10:12;127.60;;;55.10;;
57319;SDS011;43158;51.026;18.190;2022-12-07T10:14:09;155.20;;;69.70;;
57319;SDS011;43158;51.026;18.190;2022-12-07T10:17:47;131.20;;;59.40;;
57319;SDS011;43158;51.026;18.190;2022-12-07T10:21:25;119.00;;;59.20;;
57319;SDS011;43158;51.026;18.190;2022-12-07T10:25:09;126.60;;;59.70;;
57319;SDS011;43158;51.026;18.190;2022-12-07T10:28:54;135.30;;;66.40;;
57319;SDS011;43158;51.026;18.190;2022-12-07T10:32:34;129.00;;;63.10;;
57319;SDS011;43158;51.026;18.190;2022-12-07T10:36:20;130.70;;;65.90;;
57319;SDS011;43158;51.026;18.190;2022-12-07T10:40:23;136.50;;;56.80;;
57319;SDS011;43158;51.026;18.190;2022-12-07T10:43:59;111.50;;;56.70;;
57319;SDS011;43158;51.026;18.190;2022-12-07T10:47:47;99.80;;;48.90;;
57319;SDS011;43158;51.026;18.190;2022-12-07T11:07:16;114.50;;;50.70;;
57319;SDS011;43158;51.026;18.190;2022-12-07T11:11:00;79.20;;;44.20;;
57319;SDS011;43158;51.026;18.190;2022-12-07T11:14:44;97.00;;;45.20;;
57319;SDS011;43158;51.026;18.190;2022-12-07T11:22:16;96.90;;;44.80;;
57319;SDS011;43158;51.026;18.190;2022-12-07T11:26:15;92.90;;;47.90;;
57319;SDS011;43158;51.026;18.190;2022-12-07T11:34:01;101.30;;;50.80;;
57319;SDS011;43158;51.026;18.190;2022-12-07T11:37:49;93.00;;;48.80;;
57319;SDS011;43158;51.026;18.190;2022-12-07T11:41:34;111.10;;;51.60;;
57319;SDS011;43158;51.026;18.190;2022-12-07T11:52:49;91.40;;;44.40;;
57319;SDS011;43158;51.026;18.190;2022-12-07T11:56:29;92.90;;;47.90;;
57319;SDS011;43158;51.026;18.190;2022-12-07T12:00:05;94.50;;;45.60;;
57319;SDS011;43158;51.026;18.190;2022-12-07T12:03:47;94.50;;;46.80;;
57319;SDS011;43158;51.026;18.190;2022-12-07T12:07:26;83.10;;;47.10;;
57319;SDS011;43158;51.026;18.190;2022-12-07T12:14:59;90.60;;;39.50;;
57319;SDS011;43158;51.026;18.190;2022-12-07T12:18:39;80.70;;;40.50;;
57319;SDS011;43158;51.026;18.190;2022-12-07T12:22:37;88.30;;;40.80;;
57319;SDS011;43158;51.026;18.190;2022-12-07T12:26:20;67.20;;;34.80;;
57319;SDS011;43158;51.026;18.190;2022-12-07T12:29:57;64.70;;;38.10;;
57319;SDS011;43158;51.026;18.190;2022-12-07T12:33:33;53.10;;;33.00;;
57319;SDS011;43158;51.026;18.190;2022-12-07T12:41:07;48.50;;;24.40;;
57319;SDS011;43158;51.026;18.190;2022-12-07T12:45:42;46.00;;;27.30;;
57319;SDS011;43158;51.026;18.190;2022-12-07T12:56:40;45.40;;;30.70;;
57319;SDS011;43158;51.026;18.190;2022-12-07T13:00:21;49.10;;;29.50;;
57319;SDS011;43158;51.026;18.190;2022-12-07T13:03:58;54.80;;;28.50;;
57319;SDS011;43158;51.026;18.190;2022-12-07T13:15:19;43.60;;;29.80;;
57319;SDS011;43158;51.026;18.190;2022-12-07T13:23:18;42.60;;;29.60;;
57319;SDS011;43158;51.026;18.190;2022-12-07T13:26:55;47.30;;;28.80;;
57319;SDS011;43158;51.026;18.190;2022-12-07T13:30:32;44.90;;;30.70;;
57319;SDS011;43158;51.026;18.190;2022-12-07T13:38:05;36.50;;;28.70;;
57319;SDS011;43158;51.026;18.190;2022-12-07T13:41:52;40.00;;;29.30;;
57319;SDS011;43158;51.026;18.190;2022-12-07T13:45:32;44.00;;;29.80;;
57319;SDS011;43158;51.026;18.190;2022-12-07T13:49:23;33.20;;;25.90;;
57319;SDS011;43158;51.026;18.190;2022-12-07T13:53:12;44.00;;;33.30;;
57319;SDS011;43158;51.026;18.190;2022-12-07T13:56:49;37.80;;;27.70;;
57319;SDS011;43158;51.026;18.190;2022-12-07T14:00:27;38.60;;;29.20;;
57319;SDS011;43158;51.026;18.190;2022-12-07T14:04:19;45.20;;;29.00;;
57319;SDS011;43158;51.026;18.190;2022-12-07T14:11:45;55.50;;;33.70;;
57319;SDS011;43158;51.026;18.190;2022-12-07T14:15:32;54.60;;;31.90;;
57319;SDS011;43158;51.026;18.190;2022-12-07T14:19:39;54.80;;;31.10;;
57319;SDS011;43158;51.026;18.190;2022-12-07T14:23:26;52.30;;;27.60;;
57319;SDS011;43158;51.026;18.190;2022-12-07T14:27:03;47.20;;;29.70;;
57319;SDS011;43158;51.026;18.190;2022-12-07T14:30:51;40.40;;;28.90;;
57319;SDS011;43158;51.026;18.190;2022-12-07T14:34:29;45.10;;;21.70;;
57319;SDS011;43158;51.026;18.190;2022-12-07T14:38:07;43.80;;;30.30;;
57319;SDS011;43158;51.026;18.190;2022-12-07T14:41:44;43.00;;;29.40;;
57319;SDS011;43158;51.026;18.190;2022-12-07T14:45:25;44.50;;;27.80;;
57319;SDS011;43158;51.026;18.190;2022-12-07T14:49:02;39.10;;;28.30;;
57319;SDS011;43158;51.026;18.190;2022-12-07T14:52:40;37.30;;;28.60;;
57319;SDS011;43158;51.026;18.190;2022-12-07T14:56:17;35.90;;;24.20;;
57319;SDS011;43158;51.026;18.190;2022-12-07T14:59:55;34.70;;;26.00;;
57319;SDS011;43158;51.026;18.190;2022-12-07T15:03:35;34.60;;;27.60;;
57319;SDS011;43158;51.026;18.190;2022-12-07T15:07:29;42.90;;;25.50;;
57319;SDS011;43158;51.026;18.190;2022-12-07T15:11:05;49.60;;;29.20;;
57319;SDS011;43158;51.026;18.190;2022-12-07T15:14:41;40.70;;;28.80;;
57319;SDS011;43158;51.026;18.190;2022-12-07T15:18:19;42.70;;;32.30;;
57319;SDS011;43158;51.026;18.190;2022-12-07T15:21:57;55.20;;;36.80;;
57319;SDS011;43158;51.026;18.190;2022-12-07T15:25:34;53.90;;;35.70;;
57319;SDS011;43158;51.026;18.190;2022-12-07T15:29:12;61.90;;;40.20;;
57319;SDS011;43158;51.026;18.190;2022-12-07T15:32:52;63.70;;;42.10;;
57319;SDS011;43158;51.026;18.190;2022-12-07T15:36:28;54.40;;;33.70;;
57319;SDS011;43158;51.026;18.190;2022-12-07T15:40:06;47.60;;;32.00;;
57319;SDS011;43158;51.026;18.190;2022-12-07T15:43:43;53.20;;;32.60;;
57319;SDS011;43158;51.026;18.190;2022-12-07T15:47:38;46.00;;;32.70;;
57319;SDS011;43158;51.026;18.190;2022-12-07T15:51:20;46.70;;;29.70;;
57319;SDS011;43158;51.026;18.190;2022-12-07T15:54:56;49.20;;;31.10;;
57319;SDS011;43158;51.026;18.190;2022-12-07T15:58:33;44.20;;;31.30;;
57319;SDS011;43158;51.026;18.190;2022-12-07T16:02:12;44.90;;;28.20;;
57319;SDS011;43158;51.026;18.190;2022-12-07T16:05:49;42.90;;;31.70;;
57319;SDS011;43158;51.026;18.190;2022-12-07T16:09:26;38.30;;;30.40;;
57319;SDS011;43158;51.026;18.190;2022-12-07T16:13:04;53.00;;;34.00;;
57319;SDS011;43158;51.026;18.190;2022-12-07T16:16:43;56.30;;;37.20;;
57319;SDS011;43158;51.026;18.190;2022-12-07T16:20:20;56.50;;;37.20;;
57319;SDS011;43158;51.026;18.190;2022-12-07T16:23:57;52.30;;;33.60;;
57319;SDS011;43158;51.026;18.190;2022-12-07T16:27:35;47.40;;;32.80;;
57319;SDS011;43158;51.026;18.190;2022-12-07T16:31:14;47.10;;;33.50;;
57319;SDS011;43158;51.026;18.190;2022-12-07T16:34:50;50.70;;;33.40;;
57319;SDS011;43158;51.026;18.190;2022-12-07T16:38:28;49.00;;;33.30;;
57319;SDS011;43158;51.026;18.190;2022-12-07T16:42:05;54.80;;;34.70;;
57319;SDS011;43158;51.026;18.190;2022-12-07T16:45:44;46.40;;;36.80;;
57319;SDS011;43158;51.026;18.190;2022-12-07T16:49:21;57.20;;;43.30;;
57319;SDS011;43158;51.026;18.190;2022-12-07T16:52:58;55.60;;;38.80;;
57319;SDS011;43158;51.026;18.190;2022-12-07T16:56:36;52.80;;;38.40;;
57319;SDS011;43158;51.026;18.190;2022-12-07T17:00:14;50.10;;;34.70;;
57319;SDS011;43158;51.026;18.190;2022-12-07T17:03:51;45.40;;;34.50;;
57319;SDS011;43158;51.026;18.190;2022-12-07T17:07:49;47.70;;;30.90;;
57319;SDS011;43158;51.026;18.190;2022-12-07T17:11:10;46.40;;;35.00;;
57319;SDS011;43158;51.026;18.190;2022-12-07T17:14:45;47.70;;;35.60;;
57319;SDS011;43158;51.026;18.190;2022-12-07T17:18:40;47.90;;;35.50;;
57319;SDS011;43158;51.026;18.190;2022-12-07T17:22:16;49.10;;;38.50;;
57319;SDS011;43158;51.026;18.190;2022-12-07T17:25:54;62.40;;;38.70;;
57319;SDS011;43158;51.026;18.190;2022-12-07T17:29:31;55.30;;;41.10;;
57319;SDS011;43158;51.026;18.190;2022-12-07T17:33:09;51.50;;;38.90;;
57319;SDS011;43158;51.026;18.190;2022-12-07T17:36:46;62.60;;;40.90;;
57319;SDS011;43158;51.026;18.190;2022-12-07T17:40:24;70.70;;;46.20;;
57319;SDS011;43158;51.026;18.190;2022-12-07T17:44:02;69.80;;;47.60;;
57319;SDS011;43158;51.026;18.190;2022-12-07T17:47:39;66.50;;;43.90;;
57319;SDS011;43158;51.026;18.190;2022-12-07T17:51:17;57.80;;;38.40;;
57319;SDS011;43158;51.026;18.190;2022-12-07T17:55:10;58.40;;;39.80;;
57319;SDS011;43158;51.026;18.190;2022-12-07T17:58:47;50.60;;;36.10;;
57319;SDS011;43158;51.026;18.190;2022-12-07T18:02:27;57.80;;;42.90;;
57319;SDS011;43158;51.026;18.190;2022-12-07T18:06:03;50.90;;;42.10;;
57319;SDS011;43158;51.026;18.190;2022-12-07T18:09:41;57.40;;;45.10;;
57319;SDS011;43158;51.026;18.190;2022-12-07T18:13:18;59.70;;;37.80;;
57319;SDS011;43158;51.026;18.190;2022-12-07T18:17:13;63.60;;;40.20;;
57319;SDS011;43158;51.026;18.190;2022-12-07T18:20:49;51.20;;;42.40;;
57319;SDS011;43158;51.026;18.190;2022-12-07T18:24:26;64.80;;;39.20;;
57319;SDS011;43158;51.026;18.190;2022-12-07T18:28:04;59.30;;;41.60;;
57319;SDS011;43158;51.026;18.190;2022-12-07T18:31:42;53.50;;;36.30;;
57319;SDS011;43158;51.026;18.190;2022-12-07T18:35:19;58.40;;;40.30;;
57319;SDS011;43158;51.026;18.190;2022-12-07T18:38:57;57.10;;;34.90;;
57319;SDS011;43158;51.026;18.190;2022-12-07T18:42:35;51.20;;;37.30;;
57319;SDS011;43158;51.026;18.190;2022-12-07T18:46:14;51.90;;;38.50;;
57319;SDS011;43158;51.026;18.190;2022-12-07T18:49:50;58.00;;;41.00;;
57319;SDS011;43158;51.026;18.190;2022-12-07T18:53:28;55.00;;;43.00;;
57319;SDS011;43158;51.026;18.190;2022-12-07T18:57:05;52.20;;;40.40;;
57319;SDS011;43158;51.026;18.190;2022-12-07T19:00:43;49.90;;;35.20;;
57319;SDS011;43158;51.026;18.190;2022-12-07T19:04:21;49.10;;;34.90;;
57319;SDS011;43158;51.026;18.190;2022-12-07T19:08:00;47.40;;;36.20;;
57319;SDS011;43158;51.026;18.190;2022-12-07T19:11:36;51.40;;;38.30;;
57319;SDS011;43158;51.026;18.190;2022-12-07T19:15:23;56.60;;;37.60;;
57319;SDS011;43158;51.026;18.190;2022-12-07T19:19:00;58.50;;;38.20;;
57319;SDS011;43158;51.026;18.190;2022-12-07T19:22:38;63.40;;;40.10;;
57319;SDS011;43158;51.026;18.190;2022-12-07T19:26:16;60.80;;;39.20;;
57319;SDS011;43158;51.026;18.190;2022-12-07T19:29:53;64.10;;;40.40;;
57319;SDS011;43158;51.026;18.190;2022-12-07T19:33:31;56.80;;;40.60;;
57319;SDS011;43158;51.026;18.190;2022-12-07T19:37:08;65.30;;;41.10;;
57319;SDS011;43158;51.026;18.190;2022-12-07T19:40:46;69.50;;;43.90;;
57319;SDS011;43158;51.026;18.190;2022-12-07T19:44:25;68.80;;;47.10;;
57319;SDS011;43158;51.026;18.190;2022-12-07T19:48:01;79.30;;;55.00;;
57319;SDS011;43158;51.026;18.190;2022-12-07T19:51:39;91.90;;;55.50;;
57319;SDS011;43158;51.026;18.190;2022-12-07T19:55:17;76.00;;;50.10;;
57319;SDS011;43158;51.026;18.190;2022-12-07T19:58:55;79.20;;;48.50;;
57319;SDS011;43158;51.026;18.190;2022-12-07T20:02:32;70.80;;;46.00;;
57319;SDS011;43158;51.026;18.190;2022-12-07T20:06:14;74.50;;;48.10;;
57319;SDS011;43158;51.026;18.190;2022-12-07T20:09:52;75.70;;;45.90;;
57319;SDS011;43158;51.026;18.190;2022-12-07T20:13:28;72.90;;;49.00;;
57319;SDS011;43158;51.026;18.190;2022-12-07T20:17:11;75.00;;;47.00;;
57319;SDS011;43158;51.026;18.190;2022-12-07T20:20:51;74.40;;;48.60;;
57319;SDS011;43158;51.026;18.190;2022-12-07T20:24:35;87.30;;;52.10;;
57319;SDS011;43158;51.026;18.190;2022-12-07T20:28:13;88.40;;;52.90;;
57319;SDS011;43158;51.026;18.190;2022-12-07T20:31:50;80.40;;;48.30;;
57319;SDS011;43158;51.026;18.190;2022-12-07T20:35:28;67.90;;;41.90;;
57319;SDS011;43158;51.026;18.190;2022-12-07T20:39:05;63.60;;;42.30;;
57319;SDS011;43158;51.026;18.190;2022-12-07T20:42:43;57.10;;;38.40;;
57319;SDS011;43158;51.026;18.190;2022-12-07T20:46:21;58.70;;;39.30;;
57319;SDS011;43158;51.026;18.190;2022-12-07T20:49:58;70.70;;;39.20;;
57319;SDS011;43158;51.026;18.190;2022-12-07T20:53:36;60.30;;;40.90;;
57319;SDS011;43158;51.026;18.190;2022-12-07T20:57:14;71.00;;;44.50;;
57319;SDS011;43158;51.026;18.190;2022-12-07T21:00:52;70.60;;;40.30;;
57319;SDS011;43158;51.026;18.190;2022-12-07T21:04:29;76.10;;;48.40;;
57319;SDS011;43158;51.026;18.190;2022-12-07T21:08:06;81.50;;;46.60;;
57319;SDS011;43158;51.026;18.190;2022-12-07T21:11:44;84.10;;;49.40;;
57319;SDS011;43158;51.026;18.190;2022-12-07T21:15:22;76.50;;;52.00;;
57319;SDS011;43158;51.026;18.190;2022-12-07T21:19:00;82.50;;;54.50;;
57319;SDS011;43158;51.026;18.190;2022-12-07T21:22:37;87.00;;;58.40;;
57319;SDS011;43158;51.026;18.190;2022-12-07T21:26:16;90.00;;;59.60;;
57319;SDS011;43158;51.026;18.190;2022-12-07T21:29:53;106.30;;;63.20;;
57319;SDS011;43158;51.026;18.190;2022-12-07T21:33:31;78.80;;;58.50;;
57319;SDS011;43158;51.026;18.190;2022-12-07T21:37:08;87.90;;;59.30;;
57319;SDS011;43158;51.026;18.190;2022-12-07T21:40:46;93.40;;;60.40;;
57319;SDS011;43158;51.026;18.190;2022-12-07T21:44:23;92.70;;;54.70;;
57319;SDS011;43158;51.026;18.190;2022-12-07T21:48:01;85.10;;;54.70;;
57319;SDS011;43158;51.026;18.190;2022-12-07T21:51:39;79.80;;;55.10;;
57319;SDS011;43158;51.026;18.190;2022-12-07T21:55:16;84.50;;;56.20;;
57319;SDS011;43158;51.026;18.190;2022-12-07T21:58:57;88.40;;;54.40;;
57319;SDS011;43158;51.026;18.190;2022-12-07T22:02:33;92.30;;;54.40;;
57319;SDS011;43158;51.026;18.190;2022-12-07T22:06:17;90.90;;;57.90;;
57319;SDS011;43158;51.026;18.190;2022-12-07T22:09:55;93.90;;;62.90;;
57319;SDS011;43158;51.026;18.190;2022-12-07T22:13:31;88.80;;;55.60;;
57319;SDS011;43158;51.026;18.190;2022-12-07T22:17:23;102.10;;;62.90;;
57319;SDS011;43158;51.026;18.190;2022-12-07T22:21:01;97.70;;;62.30;;
57319;SDS011;43158;51.026;18.190;2022-12-07T22:24:39;86.40;;;59.20;;
57319;SDS011;43158;51.026;18.190;2022-12-07T22:28:16;86.30;;;59.80;;
57319;SDS011;43158;51.026;18.190;2022-12-07T22:31:54;73.50;;;51.80;;
57319;SDS011;43158;51.026;18.190;2022-12-07T22:35:32;80.10;;;51.20;;
57319;SDS011;43158;51.026;18.190;2022-12-07T22:39:09;87.50;;;50.30;;
57319;SDS011;43158;51.026;18.190;2022-12-07T22:42:47;72.00;;;49.20;;
57319;SDS011;43158;51.026;18.190;2022-12-07T22:46:25;65.40;;;46.80;;
57319;SDS011;43158;51.026;18.190;2022-12-07T22:50:03;70.80;;;44.60;;